sensor_id;sensor_type;location;lat;lon;timestamp;P1;durP1;ratioP1;P2;durP2;ratioP2
38318;SDS011;24121;53.536;10.224;2022-11-20T10:29:59;6.53;;;4.75;;
38318;SDS011;24121;53.536;10.224;2022-11-20T10:32:28;5.80;;;5.15;;
38318;SDS011;24121;53.536;10.224;2022-11-20T10:34:59;5.05;;;4.13;;
38318;SDS011;24121;53.536;10.224;2022-11-20T10:37:27;5.25;;;4.53;;
38318;SDS011;24121;53.536;10.224;2022-11-20T10:45:31;4.68;;;3.92;;
38318;SDS011;24121;53.536;10.224;2022-11-20T10:48:10;4.93;;;4.43;;
38318;SDS011;24121;53.536;10.224;2022-11-20T10:50:44;5.55;;;4.00;;
38318;SDS011;24121;53.536;10.224;2022-11-20T10:53:28;4.47;;;3.97;;
38318;SDS011;24121;53.536;10.224;2022-11-20T10:56:02;6.82;;;4.07;;
38318;SDS011;24121;53.536;10.224;2022-11-20T11:01:20;6.93;;;5.07;;
38318;SDS011;24121;53.536;10.224;2022-11-20T11:03:49;5.53;;;4.88;;
38318;SDS011;24121;53.536;10.224;2022-11-20T11:09:21;5.45;;;4.10;;
38318;SDS011;24121;53.536;10.224;2022-11-20T11:11:53;4.00;;;3.30;;
38318;SDS011;24121;53.536;10.224;2022-11-20T11:14:18;5.55;;;3.80;;
38318;SDS011;24121;53.536;10.224;2022-11-20T11:16:54;3.90;;;3.13;;
38318;SDS011;24121;53.536;10.224;2022-11-20T11:19:20;5.22;;;3.50;;
38318;SDS011;24121;53.536;10.224;2022-11-20T11:21:46;3.97;;;3.30;;
38318;SDS011;24121;53.536;10.224;2022-11-20T11:24:26;4.15;;;3.20;;
38318;SDS011;24121;53.536;10.224;2022-11-20T11:26:57;3.42;;;2.83;;
38318;SDS011;24121;53.536;10.224;2022-11-20T11:29:24;3.25;;;2.90;;
38318;SDS011;24121;53.536;10.224;2022-11-20T11:32:02;5.13;;;3.50;;
38318;SDS011;24121;53.536;10.224;2022-11-20T11:34:37;5.65;;;4.00;;
38318;SDS011;24121;53.536;10.224;2022-11-20T11:37:03;4.53;;;3.30;;
38318;SDS011;24121;53.536;10.224;2022-11-20T11:39:29;4.47;;;3.70;;
38318;SDS011;24121;53.536;10.224;2022-11-20T11:41:56;5.50;;;3.90;;
38318;SDS011;24121;53.536;10.224;2022-11-20T11:44:30;8.75;;;5.28;;
38318;SDS011;24121;53.536;10.224;2022-11-20T11:47:20;5.25;;;3.05;;
38318;SDS011;24121;53.536;10.224;2022-11-20T11:49:48;3.50;;;3.00;;
38318;SDS011;24121;53.536;10.224;2022-11-20T11:52:15;3.25;;;2.95;;
38318;SDS011;24121;53.536;10.224;2022-11-20T11:55:01;3.35;;;3.05;;
38318;SDS011;24121;53.536;10.224;2022-11-20T11:57:49;3.50;;;3.20;;
38318;SDS011;24121;53.536;10.224;2022-11-20T12:00:20;3.97;;;2.90;;
38318;SDS011;24121;53.536;10.224;2022-11-20T12:10:23;3.55;;;3.15;;
38318;SDS011;24121;53.536;10.224;2022-11-20T12:13:04;3.35;;;3.00;;
38318;SDS011;24121;53.536;10.224;2022-11-20T12:15:37;3.63;;;2.90;;
38318;SDS011;24121;53.536;10.224;2022-11-20T12:18:08;3.88;;;3.03;;
38318;SDS011;24121;53.536;10.224;2022-11-20T12:20:40;4.15;;;2.92;;
38318;SDS011;24121;53.536;10.224;2022-11-20T12:25:40;3.90;;;2.40;;
38318;SDS011;24121;53.536;10.224;2022-11-20T12:33:39;2.72;;;2.53;;
38318;SDS011;24121;53.536;10.224;2022-11-20T12:47:39;2.80;;;2.50;;
38318;SDS011;24121;53.536;10.224;2022-11-20T13:07:15;4.15;;;2.83;;
38318;SDS011;24121;53.536;10.224;2022-11-20T13:09:48;4.95;;;4.20;;
38318;SDS011;24121;53.536;10.224;2022-11-20T13:17:24;4.50;;;2.72;;
38318;SDS011;24121;53.536;10.224;2022-11-20T13:20:06;4.00;;;2.80;;
38318;SDS011;24121;53.536;10.224;2022-11-20T13:22:47;3.17;;;2.67;;
38318;SDS011;24121;53.536;10.224;2022-11-20T13:25:33;4.07;;;3.15;;
38318;SDS011;24121;53.536;10.224;2022-11-20T13:28:00;4.03;;;3.20;;
38318;SDS011;24121;53.536;10.224;2022-11-20T13:30:52;3.70;;;3.40;;
38318;SDS011;24121;53.536;10.224;2022-11-20T13:33:27;4.20;;;2.97;;
38318;SDS011;24121;53.536;10.224;2022-11-20T13:36:01;3.85;;;3.40;;
38318;SDS011;24121;53.536;10.224;2022-11-20T13:38:40;4.47;;;3.05;;
38318;SDS011;24121;53.536;10.224;2022-11-20T13:41:08;3.30;;;2.75;;
38318;SDS011;24121;53.536;10.224;2022-11-20T13:43:52;3.40;;;2.80;;
38318;SDS011;24121;53.536;10.224;2022-11-20T13:46:19;3.53;;;2.40;;
38318;SDS011;24121;53.536;10.224;2022-11-20T13:48:49;2.50;;;2.22;;
38318;SDS011;24121;53.536;10.224;2022-11-20T13:59:57;4.25;;;2.70;;
38318;SDS011;24121;53.536;10.224;2022-11-20T14:02:29;3.08;;;2.58;;
38318;SDS011;24121;53.536;10.224;2022-11-20T14:04:56;3.85;;;2.70;;
38318;SDS011;24121;53.536;10.224;2022-11-20T14:07:24;4.28;;;3.05;;
38318;SDS011;24121;53.536;10.224;2022-11-20T14:09:56;3.83;;;3.17;;
38318;SDS011;24121;53.536;10.224;2022-11-20T14:12:23;3.55;;;3.10;;
38318;SDS011;24121;53.536;10.224;2022-11-20T14:14:53;5.80;;;3.95;;
38318;SDS011;24121;53.536;10.224;2022-11-20T14:17:23;6.00;;;3.88;;
38318;SDS011;24121;53.536;10.224;2022-11-20T14:19:54;4.22;;;3.33;;
38318;SDS011;24121;53.536;10.224;2022-11-20T14:22:22;3.47;;;3.10;;
38318;SDS011;24121;53.536;10.224;2022-11-20T14:24:59;4.00;;;3.58;;
38318;SDS011;24121;53.536;10.224;2022-11-20T14:27:57;4.38;;;3.00;;
38318;SDS011;24121;53.536;10.224;2022-11-20T14:30:24;5.20;;;4.18;;
38318;SDS011;24121;53.536;10.224;2022-11-20T14:32:51;5.03;;;3.75;;
38318;SDS011;24121;53.536;10.224;2022-11-20T14:35:18;5.15;;;4.43;;
38318;SDS011;24121;53.536;10.224;2022-11-20T14:37:49;3.88;;;3.40;;
38318;SDS011;24121;53.536;10.224;2022-11-20T14:43:26;4.45;;;3.38;;
38318;SDS011;24121;53.536;10.224;2022-11-20T14:45:59;5.85;;;4.18;;
38318;SDS011;24121;53.536;10.224;2022-11-20T14:48:29;8.60;;;4.88;;
38318;SDS011;24121;53.536;10.224;2022-11-20T14:50:57;9.80;;;6.45;;
38318;SDS011;24121;53.536;10.224;2022-11-20T14:53:23;6.50;;;5.10;;
38318;SDS011;24121;53.536;10.224;2022-11-20T14:55:54;7.38;;;5.10;;
38318;SDS011;24121;53.536;10.224;2022-11-20T14:58:24;6.95;;;4.60;;
38318;SDS011;24121;53.536;10.224;2022-11-20T15:00:55;8.75;;;4.95;;
38318;SDS011;24121;53.536;10.224;2022-11-20T15:03:31;6.50;;;4.47;;
38318;SDS011;24121;53.536;10.224;2022-11-20T15:05:57;4.60;;;3.78;;
38318;SDS011;24121;53.536;10.224;2022-11-20T15:08:23;5.55;;;3.88;;
38318;SDS011;24121;53.536;10.224;2022-11-20T15:10:48;5.32;;;4.30;;
38318;SDS011;24121;53.536;10.224;2022-11-20T15:15:56;4.95;;;3.85;;
38318;SDS011;24121;53.536;10.224;2022-11-20T15:18:24;3.80;;;3.40;;
38318;SDS011;24121;53.536;10.224;2022-11-20T15:20:55;5.50;;;4.10;;
38318;SDS011;24121;53.536;10.224;2022-11-20T15:23:21;5.50;;;3.55;;
38318;SDS011;24121;53.536;10.224;2022-11-20T15:25:47;4.35;;;3.53;;
38318;SDS011;24121;53.536;10.224;2022-11-20T15:28:16;5.95;;;3.60;;
38318;SDS011;24121;53.536;10.224;2022-11-20T15:30:41;5.30;;;4.18;;
38318;SDS011;24121;53.536;10.224;2022-11-20T15:33:08;6.22;;;4.70;;
38318;SDS011;24121;53.536;10.224;2022-11-20T15:35:33;6.05;;;4.75;;
38318;SDS011;24121;53.536;10.224;2022-11-20T15:37:59;6.68;;;4.93;;
38318;SDS011;24121;53.536;10.224;2022-11-20T15:40:24;4.40;;;3.65;;
38318;SDS011;24121;53.536;10.224;2022-11-20T15:42:49;5.88;;;4.07;;
38318;SDS011;24121;53.536;10.224;2022-11-20T15:45:32;7.30;;;4.57;;
38318;SDS011;24121;53.536;10.224;2022-11-20T15:48:00;11.88;;;6.35;;
38318;SDS011;24121;53.536;10.224;2022-11-20T15:50:27;7.97;;;5.15;;
38318;SDS011;24121;53.536;10.224;2022-11-20T15:52:57;5.53;;;4.45;;
38318;SDS011;24121;53.536;10.224;2022-11-20T15:55:23;5.78;;;4.75;;
38318;SDS011;24121;53.536;10.224;2022-11-20T15:57:49;5.10;;;4.03;;
38318;SDS011;24121;53.536;10.224;2022-11-20T16:00:14;4.38;;;3.38;;
38318;SDS011;24121;53.536;10.224;2022-11-20T16:02:40;4.15;;;3.15;;
38318;SDS011;24121;53.536;10.224;2022-11-20T16:05:08;5.68;;;3.80;;
38318;SDS011;24121;53.536;10.224;2022-11-20T16:07:36;4.30;;;3.88;;
38318;SDS011;24121;53.536;10.224;2022-11-20T16:10:01;4.88;;;4.22;;
38318;SDS011;24121;53.536;10.224;2022-11-20T16:12:26;6.50;;;4.28;;
38318;SDS011;24121;53.536;10.224;2022-11-20T16:15:10;7.47;;;5.10;;
38318;SDS011;24121;53.536;10.224;2022-11-20T16:17:54;5.57;;;3.95;;
38318;SDS011;24121;53.536;10.224;2022-11-20T16:20:19;4.65;;;4.15;;
38318;SDS011;24121;53.536;10.224;2022-11-20T16:22:45;4.57;;;3.75;;
38318;SDS011;24121;53.536;10.224;2022-11-20T16:25:10;6.03;;;4.07;;
38318;SDS011;24121;53.536;10.224;2022-11-20T16:27:35;6.85;;;4.25;;
38318;SDS011;24121;53.536;10.224;2022-11-20T16:30:00;8.35;;;4.63;;
38318;SDS011;24121;53.536;10.224;2022-11-20T16:32:26;6.57;;;5.13;;
38318;SDS011;24121;53.536;10.224;2022-11-20T16:34:51;7.60;;;5.55;;
38318;SDS011;24121;53.536;10.224;2022-11-20T16:37:16;8.45;;;5.70;;
38318;SDS011;24121;53.536;10.224;2022-11-20T16:39:42;8.32;;;6.43;;
38318;SDS011;24121;53.536;10.224;2022-11-20T16:42:07;8.18;;;5.30;;
38318;SDS011;24121;53.536;10.224;2022-11-20T16:44:32;7.10;;;5.97;;
38318;SDS011;24121;53.536;10.224;2022-11-20T16:46:58;6.13;;;5.53;;
38318;SDS011;24121;53.536;10.224;2022-11-20T16:49:24;6.55;;;4.95;;
38318;SDS011;24121;53.536;10.224;2022-11-20T16:51:50;5.28;;;4.63;;
38318;SDS011;24121;53.536;10.224;2022-11-20T16:54:15;5.32;;;4.18;;
38318;SDS011;24121;53.536;10.224;2022-11-20T16:56:41;6.55;;;4.80;;
38318;SDS011;24121;53.536;10.224;2022-11-20T16:59:06;10.30;;;7.50;;
38318;SDS011;24121;53.536;10.224;2022-11-20T17:01:32;8.68;;;6.40;;
38318;SDS011;24121;53.536;10.224;2022-11-20T17:06:24;8.37;;;6.73;;
38318;SDS011;24121;53.536;10.224;2022-11-20T17:08:52;8.30;;;6.65;;
38318;SDS011;24121;53.536;10.224;2022-11-20T17:11:18;8.50;;;6.53;;
38318;SDS011;24121;53.536;10.224;2022-11-20T17:13:44;9.07;;;6.78;;
38318;SDS011;24121;53.536;10.224;2022-11-20T17:16:13;7.60;;;6.13;;
38318;SDS011;24121;53.536;10.224;2022-11-20T17:18:40;7.45;;;6.22;;
38318;SDS011;24121;53.536;10.224;2022-11-20T17:21:05;5.93;;;5.32;;
38318;SDS011;24121;53.536;10.224;2022-11-20T17:23:32;6.47;;;5.63;;
38318;SDS011;24121;53.536;10.224;2022-11-20T17:26:09;8.52;;;6.18;;
38318;SDS011;24121;53.536;10.224;2022-11-20T17:28:46;7.03;;;5.40;;
38318;SDS011;24121;53.536;10.224;2022-11-20T17:31:16;6.53;;;5.38;;
38318;SDS011;24121;53.536;10.224;2022-11-20T17:33:42;9.85;;;6.40;;
38318;SDS011;24121;53.536;10.224;2022-11-20T17:36:10;7.22;;;5.57;;
38318;SDS011;24121;53.536;10.224;2022-11-20T17:38:37;12.85;;;7.53;;
38318;SDS011;24121;53.536;10.224;2022-11-20T17:41:03;11.20;;;7.35;;
38318;SDS011;24121;53.536;10.224;2022-11-20T17:43:30;7.93;;;6.57;;
38318;SDS011;24121;53.536;10.224;2022-11-20T17:45:55;8.45;;;6.15;;
38318;SDS011;24121;53.536;10.224;2022-11-20T17:48:21;8.02;;;6.45;;
38318;SDS011;24121;53.536;10.224;2022-11-20T17:50:46;8.82;;;6.18;;
38318;SDS011;24121;53.536;10.224;2022-11-20T17:53:11;9.52;;;6.90;;
38318;SDS011;24121;53.536;10.224;2022-11-20T17:55:37;10.65;;;7.40;;
38318;SDS011;24121;53.536;10.224;2022-11-20T17:58:25;12.55;;;8.25;;
38318;SDS011;24121;53.536;10.224;2022-11-20T18:00:51;13.75;;;9.13;;
38318;SDS011;24121;53.536;10.224;2022-11-20T18:03:17;12.40;;;8.73;;
38318;SDS011;24121;53.536;10.224;2022-11-20T18:05:42;15.52;;;9.60;;
38318;SDS011;24121;53.536;10.224;2022-11-20T18:08:07;14.82;;;9.55;;
38318;SDS011;24121;53.536;10.224;2022-11-20T18:10:33;12.98;;;8.75;;
38318;SDS011;24121;53.536;10.224;2022-11-20T18:12:59;13.07;;;8.77;;
38318;SDS011;24121;53.536;10.224;2022-11-20T18:15:24;13.88;;;8.63;;
38318;SDS011;24121;53.536;10.224;2022-11-20T18:17:49;10.68;;;7.85;;
38318;SDS011;24121;53.536;10.224;2022-11-20T18:20:15;9.25;;;7.75;;
38318;SDS011;24121;53.536;10.224;2022-11-20T18:22:40;15.02;;;9.68;;
38318;SDS011;24121;53.536;10.224;2022-11-20T18:25:06;13.85;;;10.00;;
38318;SDS011;24121;53.536;10.224;2022-11-20T18:27:31;8.82;;;7.28;;
38318;SDS011;24121;53.536;10.224;2022-11-20T18:29:57;9.38;;;8.00;;
38318;SDS011;24121;53.536;10.224;2022-11-20T18:32:22;12.13;;;8.90;;
38318;SDS011;24121;53.536;10.224;2022-11-20T18:34:47;11.15;;;7.38;;
38318;SDS011;24121;53.536;10.224;2022-11-20T18:37:13;6.53;;;5.78;;
38318;SDS011;24121;53.536;10.224;2022-11-20T18:39:40;11.38;;;8.18;;
38318;SDS011;24121;53.536;10.224;2022-11-20T18:42:05;14.63;;;9.95;;
38318;SDS011;24121;53.536;10.224;2022-11-20T18:44:49;18.85;;;12.02;;
38318;SDS011;24121;53.536;10.224;2022-11-20T18:47:29;12.60;;;9.57;;
38318;SDS011;24121;53.536;10.224;2022-11-20T18:49:56;9.75;;;7.40;;
38318;SDS011;24121;53.536;10.224;2022-11-20T18:54:52;9.45;;;7.28;;
38318;SDS011;24121;53.536;10.224;2022-11-20T18:57:22;9.25;;;7.53;;
38318;SDS011;24121;53.536;10.224;2022-11-20T18:59:48;9.02;;;7.28;;
38318;SDS011;24121;53.536;10.224;2022-11-20T19:02:15;9.90;;;6.88;;
38318;SDS011;24121;53.536;10.224;2022-11-20T19:04:41;10.10;;;8.30;;
38318;SDS011;24121;53.536;10.224;2022-11-20T19:07:07;10.38;;;8.88;;
38318;SDS011;24121;53.536;10.224;2022-11-20T19:09:35;12.85;;;8.85;;
38318;SDS011;24121;53.536;10.224;2022-11-20T19:12:01;10.40;;;8.93;;
38318;SDS011;24121;53.536;10.224;2022-11-20T19:14:26;12.60;;;9.57;;
38318;SDS011;24121;53.536;10.224;2022-11-20T19:16:52;13.57;;;9.63;;
38318;SDS011;24121;53.536;10.224;2022-11-20T19:19:17;10.63;;;8.57;;
38318;SDS011;24121;53.536;10.224;2022-11-20T19:21:43;10.43;;;9.05;;
38318;SDS011;24121;53.536;10.224;2022-11-20T19:24:08;15.80;;;10.77;;
38318;SDS011;24121;53.536;10.224;2022-11-20T19:26:34;13.75;;;10.68;;
38318;SDS011;24121;53.536;10.224;2022-11-20T19:29:00;12.77;;;10.68;;
38318;SDS011;24121;53.536;10.224;2022-11-20T19:31:26;14.73;;;11.20;;
38318;SDS011;24121;53.536;10.224;2022-11-20T19:33:55;15.32;;;10.82;;
38318;SDS011;24121;53.536;10.224;2022-11-20T19:36:24;13.10;;;10.40;;
38318;SDS011;24121;53.536;10.224;2022-11-20T19:39:08;13.55;;;11.40;;
38318;SDS011;24121;53.536;10.224;2022-11-20T19:41:35;16.25;;;11.85;;
38318;SDS011;24121;53.536;10.224;2022-11-20T19:44:05;19.52;;;13.25;;
38318;SDS011;24121;53.536;10.224;2022-11-20T19:46:38;19.42;;;14.15;;
38318;SDS011;24121;53.536;10.224;2022-11-20T19:49:04;16.60;;;12.27;;
38318;SDS011;24121;53.536;10.224;2022-11-20T19:51:32;17.52;;;12.98;;
38318;SDS011;24121;53.536;10.224;2022-11-20T19:53:58;16.98;;;12.55;;
38318;SDS011;24121;53.536;10.224;2022-11-20T19:56:25;17.95;;;13.35;;
38318;SDS011;24121;53.536;10.224;2022-11-20T19:58:54;19.70;;;13.52;;
38318;SDS011;24121;53.536;10.224;2022-11-20T20:01:21;17.58;;;12.73;;
38318;SDS011;24121;53.536;10.224;2022-11-20T20:03:47;18.45;;;13.32;;
38318;SDS011;24121;53.536;10.224;2022-11-20T20:06:14;16.95;;;12.80;;
38318;SDS011;24121;53.536;10.224;2022-11-20T20:08:44;16.90;;;13.32;;
38318;SDS011;24121;53.536;10.224;2022-11-20T20:11:13;20.80;;;14.68;;
38318;SDS011;24121;53.536;10.224;2022-11-20T20:13:39;18.63;;;14.23;;
38318;SDS011;24121;53.536;10.224;2022-11-20T20:16:06;21.77;;;15.20;;
38318;SDS011;24121;53.536;10.224;2022-11-20T20:18:35;19.70;;;14.55;;
38318;SDS011;24121;53.536;10.224;2022-11-20T20:21:04;18.95;;;15.02;;
38318;SDS011;24121;53.536;10.224;2022-11-20T20:23:31;22.58;;;15.50;;
38318;SDS011;24121;53.536;10.224;2022-11-20T20:25:56;20.92;;;15.48;;
38318;SDS011;24121;53.536;10.224;2022-11-20T20:28:22;20.67;;;15.52;;
38318;SDS011;24121;53.536;10.224;2022-11-20T20:30:47;20.27;;;14.48;;
38318;SDS011;24121;53.536;10.224;2022-11-20T20:33:13;21.15;;;14.65;;
38318;SDS011;24121;53.536;10.224;2022-11-20T20:35:41;21.05;;;15.48;;
38318;SDS011;24121;53.536;10.224;2022-11-20T20:38:07;22.67;;;14.82;;
38318;SDS011;24121;53.536;10.224;2022-11-20T20:40:32;23.45;;;14.93;;
38318;SDS011;24121;53.536;10.224;2022-11-20T20:42:58;20.08;;;15.07;;
38318;SDS011;24121;53.536;10.224;2022-11-20T20:45:24;18.95;;;14.75;;
38318;SDS011;24121;53.536;10.224;2022-11-20T20:47:49;19.42;;;15.07;;
38318;SDS011;24121;53.536;10.224;2022-11-20T20:50:14;23.42;;;15.20;;
38318;SDS011;24121;53.536;10.224;2022-11-20T20:52:39;20.70;;;14.88;;
38318;SDS011;24121;53.536;10.224;2022-11-20T20:55:05;20.90;;;14.93;;
38318;SDS011;24121;53.536;10.224;2022-11-20T20:57:31;20.00;;;14.57;;
38318;SDS011;24121;53.536;10.224;2022-11-20T20:59:56;18.33;;;13.93;;
38318;SDS011;24121;53.536;10.224;2022-11-20T21:02:21;24.27;;;15.20;;
38318;SDS011;24121;53.536;10.224;2022-11-20T21:04:47;20.38;;;14.30;;
38318;SDS011;24121;53.536;10.224;2022-11-20T21:07:13;19.23;;;14.75;;
38318;SDS011;24121;53.536;10.224;2022-11-20T21:09:38;20.27;;;14.65;;
38318;SDS011;24121;53.536;10.224;2022-11-20T21:12:04;20.27;;;14.40;;
38318;SDS011;24121;53.536;10.224;2022-11-20T21:14:29;22.85;;;14.55;;
38318;SDS011;24121;53.536;10.224;2022-11-20T21:16:54;20.52;;;14.15;;
38318;SDS011;24121;53.536;10.224;2022-11-20T21:19:20;20.55;;;15.35;;
38318;SDS011;24121;53.536;10.224;2022-11-20T21:21:45;21.58;;;15.48;;
38318;SDS011;24121;53.536;10.224;2022-11-20T21:24:22;21.98;;;15.13;;
38318;SDS011;24121;53.536;10.224;2022-11-20T21:26:48;21.92;;;14.95;;
38318;SDS011;24121;53.536;10.224;2022-11-20T21:29:16;21.27;;;15.48;;
38318;SDS011;24121;53.536;10.224;2022-11-20T21:31:41;21.08;;;15.57;;
38318;SDS011;24121;53.536;10.224;2022-11-20T21:34:08;19.40;;;14.43;;
38318;SDS011;24121;53.536;10.224;2022-11-20T21:36:35;20.77;;;15.20;;
38318;SDS011;24121;53.536;10.224;2022-11-20T21:39:00;25.67;;;17.27;;
38318;SDS011;24121;53.536;10.224;2022-11-20T21:41:26;25.02;;;17.23;;
38318;SDS011;24121;53.536;10.224;2022-11-20T21:43:52;21.73;;;16.35;;
38318;SDS011;24121;53.536;10.224;2022-11-20T21:46:18;23.73;;;16.63;;
38318;SDS011;24121;53.536;10.224;2022-11-20T21:48:44;23.30;;;17.05;;
38318;SDS011;24121;53.536;10.224;2022-11-20T21:53:36;27.52;;;18.25;;
38318;SDS011;24121;53.536;10.224;2022-11-20T21:56:02;21.25;;;15.45;;
38318;SDS011;24121;53.536;10.224;2022-11-20T21:58:30;25.50;;;17.70;;
38318;SDS011;24121;53.536;10.224;2022-11-20T22:00:56;26.20;;;17.30;;
38318;SDS011;24121;53.536;10.224;2022-11-20T22:03:21;20.30;;;15.25;;
38318;SDS011;24121;53.536;10.224;2022-11-20T22:05:56;27.25;;;18.10;;
38318;SDS011;24121;53.536;10.224;2022-11-20T22:08:22;25.33;;;17.58;;
38318;SDS011;24121;53.536;10.224;2022-11-20T22:10:52;24.38;;;17.10;;
38318;SDS011;24121;53.536;10.224;2022-11-20T22:13:28;23.20;;;16.35;;
38318;SDS011;24121;53.536;10.224;2022-11-20T22:16:12;23.05;;;16.75;;
38318;SDS011;24121;53.536;10.224;2022-11-20T22:18:45;26.67;;;17.17;;
38318;SDS011;24121;53.536;10.224;2022-11-20T22:21:12;27.15;;;17.88;;
38318;SDS011;24121;53.536;10.224;2022-11-20T22:23:38;26.77;;;17.80;;
38318;SDS011;24121;53.536;10.224;2022-11-20T22:26:04;24.50;;;18.70;;
38318;SDS011;24121;53.536;10.224;2022-11-20T22:31:00;25.67;;;17.63;;
38318;SDS011;24121;53.536;10.224;2022-11-20T22:33:27;26.42;;;17.92;;
38318;SDS011;24121;53.536;10.224;2022-11-20T22:36:04;24.23;;;17.60;;
38318;SDS011;24121;53.536;10.224;2022-11-20T22:38:35;25.85;;;18.13;;
38318;SDS011;24121;53.536;10.224;2022-11-20T22:41:01;25.48;;;16.90;;
38318;SDS011;24121;53.536;10.224;2022-11-20T22:43:37;25.25;;;16.52;;
38318;SDS011;24121;53.536;10.224;2022-11-20T22:46:12;25.88;;;18.58;;
38318;SDS011;24121;53.536;10.224;2022-11-20T22:48:43;24.60;;;17.63;;
38318;SDS011;24121;53.536;10.224;2022-11-20T22:51:10;24.88;;;17.27;;
38318;SDS011;24121;53.536;10.224;2022-11-20T22:53:37;22.73;;;15.90;;
38318;SDS011;24121;53.536;10.224;2022-11-20T22:56:02;24.85;;;16.05;;
38318;SDS011;24121;53.536;10.224;2022-11-20T22:58:30;27.17;;;17.45;;
38318;SDS011;24121;53.536;10.224;2022-11-20T23:01:18;24.58;;;17.02;;
38318;SDS011;24121;53.536;10.224;2022-11-20T23:03:44;26.17;;;16.98;;
38318;SDS011;24121;53.536;10.224;2022-11-20T23:06:10;26.67;;;17.05;;
38318;SDS011;24121;53.536;10.224;2022-11-20T23:08:37;24.42;;;16.52;;
38318;SDS011;24121;53.536;10.224;2022-11-20T23:11:07;21.42;;;15.52;;
38318;SDS011;24121;53.536;10.224;2022-11-20T23:13:33;25.08;;;16.80;;
38318;SDS011;24121;53.536;10.224;2022-11-20T23:16:02;24.15;;;16.85;;
38318;SDS011;24121;53.536;10.224;2022-11-20T23:18:29;25.38;;;17.60;;
38318;SDS011;24121;53.536;10.224;2022-11-20T23:20:54;27.23;;;17.92;;
38318;SDS011;24121;53.536;10.224;2022-11-20T23:23:20;25.92;;;17.70;;
38318;SDS011;24121;53.536;10.224;2022-11-20T23:25:45;26.08;;;17.85;;
38318;SDS011;24121;53.536;10.224;2022-11-20T23:28:10;24.27;;;16.70;;
38318;SDS011;24121;53.536;10.224;2022-11-20T23:30:36;25.55;;;17.15;;
38318;SDS011;24121;53.536;10.224;2022-11-20T23:33:01;25.73;;;17.23;;
38318;SDS011;24121;53.536;10.224;2022-11-20T23:35:26;25.20;;;17.20;;
38318;SDS011;24121;53.536;10.224;2022-11-20T23:37:52;25.13;;;17.38;;
38318;SDS011;24121;53.536;10.224;2022-11-20T23:40:17;25.20;;;16.85;;
38318;SDS011;24121;53.536;10.224;2022-11-20T23:42:42;27.95;;;18.83;;
38318;SDS011;24121;53.536;10.224;2022-11-20T23:45:28;28.02;;;17.73;;
38318;SDS011;24121;53.536;10.224;2022-11-20T23:47:53;27.00;;;17.85;;
38318;SDS011;24121;53.536;10.224;2022-11-20T23:50:18;29.83;;;18.55;;
38318;SDS011;24121;53.536;10.224;2022-11-20T23:52:43;28.95;;;18.02;;
38318;SDS011;24121;53.536;10.224;2022-11-20T23:55:09;27.67;;;17.63;;
38318;SDS011;24121;53.536;10.224;2022-11-20T23:57:34;24.48;;;16.88;;
38318;SDS011;24121;53.536;10.224;2022-11-20T23:59:59;24.48;;;16.77;;
